sensor_id;sensor_type;location;lat;lon;timestamp;temperature;humidity
14733;DHT22;7457;50.960;6.830;2024-03-02T00:00:08;7.60;88.40
14733;DHT22;7457;50.960;6.830;2024-03-02T00:02:44;7.60;88.40
14733;DHT22;7457;50.960;6.830;2024-03-02T00:05:21;7.60;88.40
14733;DHT22;7457;50.960;6.830;2024-03-02T00:10:21;7.60;88.30
14733;DHT22;7457;50.960;6.830;2024-03-02T00:12:51;7.70;88.30
14733;DHT22;7457;50.960;6.830;2024-03-02T00:15:48;7.70;88.10
14733;DHT22;7457;50.960;6.830;2024-03-02T00:18:24;7.70;88.00
14733;DHT22;7457;50.960;6.830;2024-03-02T00:20:56;7.70;88.00
14733;DHT22;7457;50.960;6.830;2024-03-02T00:23:29;7.80;87.70
14733;DHT22;7457;50.960;6.830;2024-03-02T00:25:56;7.80;87.50
14733;DHT22;7457;50.960;6.830;2024-03-02T00:28:24;7.90;87.40
14733;DHT22;7457;50.960;6.830;2024-03-02T00:31:09;7.90;87.20
14733;DHT22;7457;50.960;6.830;2024-03-02T00:33:43;8.00;87.20
14733;DHT22;7457;50.960;6.830;2024-03-02T00:36:10;8.00;87.00
14733;DHT22;7457;50.960;6.830;2024-03-02T00:38:49;8.00;86.90
14733;DHT22;7457;50.960;6.830;2024-03-02T00:41:26;8.10;86.70
14733;DHT22;7457;50.960;6.830;2024-03-02T00:44:03;8.10;86.50
14733;DHT22;7457;50.960;6.830;2024-03-02T00:46:40;8.10;86.40
14733;DHT22;7457;50.960;6.830;2024-03-02T00:49:20;8.10;86.40
14733;DHT22;7457;50.960;6.830;2024-03-02T00:51:47;8.10;86.30
14733;DHT22;7457;50.960;6.830;2024-03-02T00:54:25;8.10;86.30
14733;DHT22;7457;50.960;6.830;2024-03-02T00:56:54;8.10;86.40
14733;DHT22;7457;50.960;6.830;2024-03-02T00:59:22;8.10;86.40
14733;DHT22;7457;50.960;6.830;2024-03-02T01:01:48;8.10;86.40
14733;DHT22;7457;50.960;6.830;2024-03-02T01:04:15;8.10;86.50
14733;DHT22;7457;50.960;6.830;2024-03-02T01:06:42;8.00;86.50
14733;DHT22;7457;50.960;6.830;2024-03-02T01:09:08;8.00;86.50
14733;DHT22;7457;50.960;6.830;2024-03-02T01:11:34;8.00;86.40
14733;DHT22;7457;50.960;6.830;2024-03-02T01:13:59;8.00;86.40
14733;DHT22;7457;50.960;6.830;2024-03-02T01:16:25;8.00;86.50
14733;DHT22;7457;50.960;6.830;2024-03-02T01:18:51;8.00;86.50
14733;DHT22;7457;50.960;6.830;2024-03-02T01:21:17;7.90;86.70
14733;DHT22;7457;50.960;6.830;2024-03-02T01:23:43;7.90;86.80
14733;DHT22;7457;50.960;6.830;2024-03-02T01:26:09;7.90;86.80
14733;DHT22;7457;50.960;6.830;2024-03-02T01:28:34;7.90;86.90
14733;DHT22;7457;50.960;6.830;2024-03-02T01:31:00;7.90;87.00
14733;DHT22;7457;50.960;6.830;2024-03-02T01:33:27;7.90;87.20
14733;DHT22;7457;50.960;6.830;2024-03-02T01:35:53;7.80;87.40
14733;DHT22;7457;50.960;6.830;2024-03-02T01:38:19;7.90;87.40
14733;DHT22;7457;50.960;6.830;2024-03-02T01:40:45;7.90;87.30
14733;DHT22;7457;50.960;6.830;2024-03-02T01:43:11;8.00;87.20
14733;DHT22;7457;50.960;6.830;2024-03-02T01:45:37;7.90;86.90
14733;DHT22;7457;50.960;6.830;2024-03-02T01:48:06;8.00;86.80
14733;DHT22;7457;50.960;6.830;2024-03-02T01:50:33;8.00;86.40
14733;DHT22;7457;50.960;6.830;2024-03-02T01:52:59;8.00;86.20
14733;DHT22;7457;50.960;6.830;2024-03-02T01:55:26;8.00;86.20
14733;DHT22;7457;50.960;6.830;2024-03-02T01:57:52;8.00;85.90
14733;DHT22;7457;50.960;6.830;2024-03-02T02:00:20;8.00;85.90
14733;DHT22;7457;50.960;6.830;2024-03-02T02:02:46;8.00;85.80
14733;DHT22;7457;50.960;6.830;2024-03-02T02:05:13;7.90;85.80
14733;DHT22;7457;50.960;6.830;2024-03-02T02:07:40;7.90;86.00
14733;DHT22;7457;50.960;6.830;2024-03-02T02:10:07;7.80;86.20
14733;DHT22;7457;50.960;6.830;2024-03-02T02:12:33;7.80;86.30
14733;DHT22;7457;50.960;6.830;2024-03-02T02:14:59;7.80;86.40
14733;DHT22;7457;50.960;6.830;2024-03-02T02:17:25;7.80;86.60
14733;DHT22;7457;50.960;6.830;2024-03-02T02:19:50;7.80;86.80
14733;DHT22;7457;50.960;6.830;2024-03-02T02:22:16;7.70;86.90
14733;DHT22;7457;50.960;6.830;2024-03-02T02:24:42;7.80;87.00
14733;DHT22;7457;50.960;6.830;2024-03-02T02:27:08;7.70;87.00
14733;DHT22;7457;50.960;6.830;2024-03-02T02:29:35;7.70;87.20
14733;DHT22;7457;50.960;6.830;2024-03-02T02:32:01;7.70;87.40
14733;DHT22;7457;50.960;6.830;2024-03-02T02:34:27;7.70;87.50
14733;DHT22;7457;50.960;6.830;2024-03-02T02:36:53;7.60;87.70
14733;DHT22;7457;50.960;6.830;2024-03-02T02:39:21;7.60;87.80
14733;DHT22;7457;50.960;6.830;2024-03-02T02:41:48;7.60;87.90
14733;DHT22;7457;50.960;6.830;2024-03-02T02:44:14;7.60;88.10
14733;DHT22;7457;50.960;6.830;2024-03-02T02:46:40;7.60;88.20
14733;DHT22;7457;50.960;6.830;2024-03-02T02:49:06;7.60;88.20
14733;DHT22;7457;50.960;6.830;2024-03-02T02:51:32;7.50;88.30
14733;DHT22;7457;50.960;6.830;2024-03-02T02:53:58;7.50;88.40
14733;DHT22;7457;50.960;6.830;2024-03-02T02:56:24;7.60;88.40
14733;DHT22;7457;50.960;6.830;2024-03-02T02:58:49;7.50;88.40
14733;DHT22;7457;50.960;6.830;2024-03-02T03:01:16;7.50;88.60
14733;DHT22;7457;50.960;6.830;2024-03-02T03:03:45;7.50;88.50
14733;DHT22;7457;50.960;6.830;2024-03-02T03:06:11;7.50;88.70
14733;DHT22;7457;50.960;6.830;2024-03-02T03:08:37;7.50;88.70
14733;DHT22;7457;50.960;6.830;2024-03-02T03:11:04;7.50;88.90
14733;DHT22;7457;50.960;6.830;2024-03-02T03:13:31;7.40;89.10
14733;DHT22;7457;50.960;6.830;2024-03-02T03:15:57;7.40;89.20
14733;DHT22;7457;50.960;6.830;2024-03-02T03:18:23;7.40;89.40
14733;DHT22;7457;50.960;6.830;2024-03-02T03:20:48;7.40;89.40
14733;DHT22;7457;50.960;6.830;2024-03-02T03:23:15;7.40;89.40
14733;DHT22;7457;50.960;6.830;2024-03-02T03:25:42;7.40;89.50
14733;DHT22;7457;50.960;6.830;2024-03-02T03:28:09;7.40;89.60
14733;DHT22;7457;50.960;6.830;2024-03-02T03:30:38;7.40;89.60
14733;DHT22;7457;50.960;6.830;2024-03-02T03:33:04;7.40;89.70
14733;DHT22;7457;50.960;6.830;2024-03-02T03:35:33;7.40;89.70
14733;DHT22;7457;50.960;6.830;2024-03-02T03:37:59;7.30;89.90
14733;DHT22;7457;50.960;6.830;2024-03-02T03:40:25;7.30;90.00
14733;DHT22;7457;50.960;6.830;2024-03-02T03:42:51;7.30;90.10
14733;DHT22;7457;50.960;6.830;2024-03-02T03:45:17;7.30;90.30
14733;DHT22;7457;50.960;6.830;2024-03-02T03:47:43;7.30;90.40
14733;DHT22;7457;50.960;6.830;2024-03-02T03:50:09;7.20;90.50
14733;DHT22;7457;50.960;6.830;2024-03-02T03:52:35;7.20;90.60
14733;DHT22;7457;50.960;6.830;2024-03-02T03:55:01;7.20;90.70
14733;DHT22;7457;50.960;6.830;2024-03-02T03:57:27;7.20;90.70
14733;DHT22;7457;50.960;6.830;2024-03-02T03:59:53;7.20;90.80
14733;DHT22;7457;50.960;6.830;2024-03-02T04:02:19;7.20;90.90
14733;DHT22;7457;50.960;6.830;2024-03-02T04:04:45;7.20;91.00
14733;DHT22;7457;50.960;6.830;2024-03-02T04:07:11;7.10;91.10
14733;DHT22;7457;50.960;6.830;2024-03-02T04:09:37;7.10;91.30
14733;DHT22;7457;50.960;6.830;2024-03-02T04:12:03;7.00;91.40
14733;DHT22;7457;50.960;6.830;2024-03-02T04:14:29;7.00;91.60
14733;DHT22;7457;50.960;6.830;2024-03-02T04:16:54;6.90;91.70
14733;DHT22;7457;50.960;6.830;2024-03-02T04:19:21;6.80;92.00
14733;DHT22;7457;50.960;6.830;2024-03-02T04:21:46;6.80;92.10
14733;DHT22;7457;50.960;6.830;2024-03-02T04:24:12;6.70;92.30
14733;DHT22;7457;50.960;6.830;2024-03-02T04:26:38;6.70;92.50
14733;DHT22;7457;50.960;6.830;2024-03-02T04:29:03;6.60;92.70
14733;DHT22;7457;50.960;6.830;2024-03-02T04:31:29;6.50;93.10
14733;DHT22;7457;50.960;6.830;2024-03-02T04:33:55;6.50;93.40
14733;DHT22;7457;50.960;6.830;2024-03-02T04:36:21;6.50;93.70
14733;DHT22;7457;50.960;6.830;2024-03-02T04:38:47;6.50;93.90
14733;DHT22;7457;50.960;6.830;2024-03-02T04:41:13;6.40;94.20
14733;DHT22;7457;50.960;6.830;2024-03-02T04:43:39;6.40;94.30
14733;DHT22;7457;50.960;6.830;2024-03-02T04:48:33;6.30;94.30
14733;DHT22;7457;50.960;6.830;2024-03-02T04:50:59;6.30;94.60
14733;DHT22;7457;50.960;6.830;2024-03-02T04:53:25;6.30;94.90
14733;DHT22;7457;50.960;6.830;2024-03-02T04:55:51;6.20;95.00
14733;DHT22;7457;50.960;6.830;2024-03-02T04:58:35;6.20;95.40
14733;DHT22;7457;50.960;6.830;2024-03-02T05:01:01;6.10;95.30
14733;DHT22;7457;50.960;6.830;2024-03-02T05:03:27;6.10;95.30
14733;DHT22;7457;50.960;6.830;2024-03-02T05:05:52;6.20;95.50
14733;DHT22;7457;50.960;6.830;2024-03-02T05:08:18;6.20;95.40
14733;DHT22;7457;50.960;6.830;2024-03-02T05:10:44;6.20;95.40
14733;DHT22;7457;50.960;6.830;2024-03-02T05:13:10;6.10;95.70
14733;DHT22;7457;50.960;6.830;2024-03-02T05:15:35;6.10;95.80
14733;DHT22;7457;50.960;6.830;2024-03-02T05:18:01;6.10;96.00
14733;DHT22;7457;50.960;6.830;2024-03-02T05:20:30;6.10;96.10
14733;DHT22;7457;50.960;6.830;2024-03-02T05:22:56;6.10;96.00
14733;DHT22;7457;50.960;6.830;2024-03-02T05:25:22;6.10;96.00
14733;DHT22;7457;50.960;6.830;2024-03-02T05:27:48;6.10;95.90
14733;DHT22;7457;50.960;6.830;2024-03-02T05:30:14;6.10;96.00
14733;DHT22;7457;50.960;6.830;2024-03-02T05:32:40;6.00;95.70
14733;DHT22;7457;50.960;6.830;2024-03-02T05:35:06;6.00;96.00
14733;DHT22;7457;50.960;6.830;2024-03-02T05:37:32;6.00;96.50
14733;DHT22;7457;50.960;6.830;2024-03-02T05:39:57;6.00;96.70
14733;DHT22;7457;50.960;6.830;2024-03-02T05:42:24;6.00;96.90
14733;DHT22;7457;50.960;6.830;2024-03-02T05:44:50;6.00;97.00
14733;DHT22;7457;50.960;6.830;2024-03-02T05:47:16;6.00;97.00
14733;DHT22;7457;50.960;6.830;2024-03-02T05:49:41;6.00;97.00
14733;DHT22;7457;50.960;6.830;2024-03-02T05:52:08;6.00;97.00
14733;DHT22;7457;50.960;6.830;2024-03-02T05:54:34;6.00;97.20
14733;DHT22;7457;50.960;6.830;2024-03-02T05:57:00;5.90;97.50
14733;DHT22;7457;50.960;6.830;2024-03-02T05:59:42;5.90;97.80
14733;DHT22;7457;50.960;6.830;2024-03-02T06:02:08;5.90;98.10
14733;DHT22;7457;50.960;6.830;2024-03-02T06:04:34;6.00;98.00
14733;DHT22;7457;50.960;6.830;2024-03-02T06:06:59;6.00;98.00
14733;DHT22;7457;50.960;6.830;2024-03-02T06:09:25;6.10;98.00
14733;DHT22;7457;50.960;6.830;2024-03-02T06:11:51;6.10;98.00
14733;DHT22;7457;50.960;6.830;2024-03-02T06:14:17;6.10;98.00
14733;DHT22;7457;50.960;6.830;2024-03-02T06:16:43;6.20;98.00
14733;DHT22;7457;50.960;6.830;2024-03-02T06:19:09;6.20;98.10
14733;DHT22;7457;50.960;6.830;2024-03-02T06:21:34;6.30;98.00
14733;DHT22;7457;50.960;6.830;2024-03-02T06:24:00;6.30;97.90
14733;DHT22;7457;50.960;6.830;2024-03-02T06:26:26;6.30;98.00
14733;DHT22;7457;50.960;6.830;2024-03-02T06:28:52;6.30;97.90
14733;DHT22;7457;50.960;6.830;2024-03-02T06:31:18;6.30;98.00
14733;DHT22;7457;50.960;6.830;2024-03-02T06:33:43;6.30;98.00
14733;DHT22;7457;50.960;6.830;2024-03-02T06:36:09;6.40;97.90
14733;DHT22;7457;50.960;6.830;2024-03-02T06:38:37;6.40;97.60
14733;DHT22;7457;50.960;6.830;2024-03-02T06:41:03;6.40;97.20
14733;DHT22;7457;50.960;6.830;2024-03-02T06:43:28;6.50;97.00
14733;DHT22;7457;50.960;6.830;2024-03-02T06:45:54;6.50;96.90
14733;DHT22;7457;50.960;6.830;2024-03-02T06:48:20;6.50;96.80
14733;DHT22;7457;50.960;6.830;2024-03-02T06:50:49;6.50;96.80
14733;DHT22;7457;50.960;6.830;2024-03-02T06:53:16;6.60;96.90
14733;DHT22;7457;50.960;6.830;2024-03-02T06:55:46;6.60;97.50
14733;DHT22;7457;50.960;6.830;2024-03-02T06:58:12;6.70;97.80
14733;DHT22;7457;50.960;6.830;2024-03-02T07:00:38;6.80;96.70
14733;DHT22;7457;50.960;6.830;2024-03-02T07:03:04;6.90;96.40
14733;DHT22;7457;50.960;6.830;2024-03-02T07:05:30;7.00;95.80
14733;DHT22;7457;50.960;6.830;2024-03-02T07:07:56;7.00;95.70
14733;DHT22;7457;50.960;6.830;2024-03-02T07:10:21;7.10;96.70
14733;DHT22;7457;50.960;6.830;2024-03-02T07:12:47;7.40;96.90
14733;DHT22;7457;50.960;6.830;2024-03-02T07:15:13;7.80;95.60
14733;DHT22;7457;50.960;6.830;2024-03-02T07:17:57;8.30;94.40
14733;DHT22;7457;50.960;6.830;2024-03-02T07:20:23;8.70;92.20
14733;DHT22;7457;50.960;6.830;2024-03-02T07:22:49;8.90;90.90
14733;DHT22;7457;50.960;6.830;2024-03-02T07:25:15;9.20;89.70
14733;DHT22;7457;50.960;6.830;2024-03-02T07:27:41;9.40;88.90
14733;DHT22;7457;50.960;6.830;2024-03-02T07:30:07;9.70;87.60
14733;DHT22;7457;50.960;6.830;2024-03-02T07:32:33;9.80;86.50
14733;DHT22;7457;50.960;6.830;2024-03-02T07:34:58;9.90;85.70
14733;DHT22;7457;50.960;6.830;2024-03-02T07:37:24;10.00;84.10
14733;DHT22;7457;50.960;6.830;2024-03-02T07:39:50;10.00;84.10
14733;DHT22;7457;50.960;6.830;2024-03-02T07:42:16;10.00;83.20
14733;DHT22;7457;50.960;6.830;2024-03-02T07:44:44;9.90;83.70
14733;DHT22;7457;50.960;6.830;2024-03-02T07:47:10;9.80;83.30
14733;DHT22;7457;50.960;6.830;2024-03-02T07:49:36;9.70;83.20
14733;DHT22;7457;50.960;6.830;2024-03-02T07:52:02;9.80;83.70
14733;DHT22;7457;50.960;6.830;2024-03-02T07:54:28;9.80;83.90
14733;DHT22;7457;50.960;6.830;2024-03-02T07:56:54;10.00;83.80
14733;DHT22;7457;50.960;6.830;2024-03-02T07:59:19;10.20;83.30
14733;DHT22;7457;50.960;6.830;2024-03-02T08:01:48;10.50;82.10
14733;DHT22;7457;50.960;6.830;2024-03-02T08:04:14;10.70;81.70
14733;DHT22;7457;50.960;6.830;2024-03-02T08:06:40;10.80;80.60
14733;DHT22;7457;50.960;6.830;2024-03-02T08:09:06;11.00;80.40
14733;DHT22;7457;50.960;6.830;2024-03-02T08:11:35;10.90;79.00
14733;DHT22;7457;50.960;6.830;2024-03-02T08:14:01;10.90;78.90
14733;DHT22;7457;50.960;6.830;2024-03-02T08:16:27;10.60;78.70
14733;DHT22;7457;50.960;6.830;2024-03-02T08:18:53;10.30;80.50
14733;DHT22;7457;50.960;6.830;2024-03-02T08:21:19;10.30;80.80
14733;DHT22;7457;50.960;6.830;2024-03-02T08:23:45;10.50;81.10
14733;DHT22;7457;50.960;6.830;2024-03-02T08:26:11;10.70;81.60
14733;DHT22;7457;50.960;6.830;2024-03-02T08:28:37;10.90;80.60
14733;DHT22;7457;50.960;6.830;2024-03-02T08:31:06;11.10;80.30
14733;DHT22;7457;50.960;6.830;2024-03-02T08:33:32;11.30;79.90
14733;DHT22;7457;50.960;6.830;2024-03-02T08:35:58;11.60;79.40
14733;DHT22;7457;50.960;6.830;2024-03-02T08:38:24;11.50;78.30
14733;DHT22;7457;50.960;6.830;2024-03-02T08:40:50;11.40;78.20
14733;DHT22;7457;50.960;6.830;2024-03-02T08:43:16;11.20;78.80
14733;DHT22;7457;50.960;6.830;2024-03-02T08:45:42;11.00;79.20
14733;DHT22;7457;50.960;6.830;2024-03-02T08:48:08;10.90;79.50
14733;DHT22;7457;50.960;6.830;2024-03-02T08:50:37;10.90;79.80
14733;DHT22;7457;50.960;6.830;2024-03-02T08:53:03;10.80;79.50
14733;DHT22;7457;50.960;6.830;2024-03-02T08:55:29;10.80;79.80
14733;DHT22;7457;50.960;6.830;2024-03-02T08:57:55;10.80;80.50
14733;DHT22;7457;50.960;6.830;2024-03-02T09:00:21;10.90;80.20
14733;DHT22;7457;50.960;6.830;2024-03-02T09:02:47;11.00;80.00
14733;DHT22;7457;50.960;6.830;2024-03-02T09:05:13;11.10;80.00
14733;DHT22;7457;50.960;6.830;2024-03-02T09:07:39;11.20;79.60
14733;DHT22;7457;50.960;6.830;2024-03-02T09:10:06;11.40;78.80
14733;DHT22;7457;50.960;6.830;2024-03-02T09:12:32;11.50;78.40
14733;DHT22;7457;50.960;6.830;2024-03-02T09:14:59;11.50;78.10
14733;DHT22;7457;50.960;6.830;2024-03-02T09:17:25;11.50;78.00
14733;DHT22;7457;50.960;6.830;2024-03-02T09:19:50;11.50;78.10
14733;DHT22;7457;50.960;6.830;2024-03-02T09:22:19;11.40;78.20
14733;DHT22;7457;50.960;6.830;2024-03-02T09:24:45;11.50;78.10
14733;DHT22;7457;50.960;6.830;2024-03-02T09:27:11;11.60;77.40
14733;DHT22;7457;50.960;6.830;2024-03-02T09:29:37;11.70;76.10
14733;DHT22;7457;50.960;6.830;2024-03-02T09:32:03;11.70;76.10
14733;DHT22;7457;50.960;6.830;2024-03-02T09:34:29;11.90;76.10
14733;DHT22;7457;50.960;6.830;2024-03-02T09:36:55;12.10;74.50
14733;DHT22;7457;50.960;6.830;2024-03-02T09:39:21;12.20;73.80
14733;DHT22;7457;50.960;6.830;2024-03-02T09:41:48;12.10;72.90
14733;DHT22;7457;50.960;6.830;2024-03-02T09:44:14;12.00;73.70
14733;DHT22;7457;50.960;6.830;2024-03-02T09:46:40;12.00;74.20
14733;DHT22;7457;50.960;6.830;2024-03-02T09:49:06;12.00;73.80
14733;DHT22;7457;50.960;6.830;2024-03-02T09:51:32;12.00;74.60
14733;DHT22;7457;50.960;6.830;2024-03-02T09:53:57;12.10;73.90
14733;DHT22;7457;50.960;6.830;2024-03-02T09:56:26;12.30;75.10
14733;DHT22;7457;50.960;6.830;2024-03-02T09:58:52;12.50;74.20
14733;DHT22;7457;50.960;6.830;2024-03-02T10:01:17;12.80;74.60
14733;DHT22;7457;50.960;6.830;2024-03-02T10:03:44;13.10;74.00
14733;DHT22;7457;50.960;6.830;2024-03-02T10:08:46;13.70;72.10
14733;DHT22;7457;50.960;6.830;2024-03-02T10:11:35;14.10;72.00
14733;DHT22;7457;50.960;6.830;2024-03-02T10:14:11;14.50;66.80
14733;DHT22;7457;50.960;6.830;2024-03-02T10:16:39;14.70;69.00
14733;DHT22;7457;50.960;6.830;2024-03-02T10:19:19;15.00;67.90
14733;DHT22;7457;50.960;6.830;2024-03-02T10:21:53;15.50;67.20
14733;DHT22;7457;50.960;6.830;2024-03-02T10:24:22;15.70;63.90
14733;DHT22;7457;50.960;6.830;2024-03-02T10:26:49;15.60;63.70
14733;DHT22;7457;50.960;6.830;2024-03-02T10:29:15;15.70;63.30
14733;DHT22;7457;50.960;6.830;2024-03-02T10:31:44;15.80;63.00
14733;DHT22;7457;50.960;6.830;2024-03-02T10:34:12;15.90;62.00
14733;DHT22;7457;50.960;6.830;2024-03-02T10:36:41;15.90;63.40
14733;DHT22;7457;50.960;6.830;2024-03-02T10:39:08;16.10;63.20
14733;DHT22;7457;50.960;6.830;2024-03-02T10:41:37;16.20;61.80
14733;DHT22;7457;50.960;6.830;2024-03-02T10:44:05;16.20;62.20
14733;DHT22;7457;50.960;6.830;2024-03-02T10:46:33;16.10;62.00
14733;DHT22;7457;50.960;6.830;2024-03-02T10:49:00;15.70;62.30
14733;DHT22;7457;50.960;6.830;2024-03-02T10:51:28;15.60;63.00
14733;DHT22;7457;50.960;6.830;2024-03-02T10:54:00;15.50;63.20
14733;DHT22;7457;50.960;6.830;2024-03-02T10:56:32;15.50;64.10
14733;DHT22;7457;50.960;6.830;2024-03-02T10:59:19;15.60;63.10
14733;DHT22;7457;50.960;6.830;2024-03-02T11:01:48;15.60;62.90
14733;DHT22;7457;50.960;6.830;2024-03-02T11:04:17;15.50;63.10
14733;DHT22;7457;50.960;6.830;2024-03-02T11:06:48;15.60;63.80
14733;DHT22;7457;50.960;6.830;2024-03-02T11:09:14;15.70;63.50
14733;DHT22;7457;50.960;6.830;2024-03-02T11:11:43;16.00;63.80
14733;DHT22;7457;50.960;6.830;2024-03-02T11:14:14;16.20;62.50
14733;DHT22;7457;50.960;6.830;2024-03-02T11:16:42;16.40;62.00
14733;DHT22;7457;50.960;6.830;2024-03-02T11:19:11;16.40;60.90
14733;DHT22;7457;50.960;6.830;2024-03-02T11:21:37;16.30;61.20
14733;DHT22;7457;50.960;6.830;2024-03-02T11:26:50;16.30;59.60
14733;DHT22;7457;50.960;6.830;2024-03-02T11:32:05;16.10;60.40
14733;DHT22;7457;50.960;6.830;2024-03-02T11:36:58;15.40;61.50
14733;DHT22;7457;50.960;6.830;2024-03-02T11:39:29;15.40;61.80
14733;DHT22;7457;50.960;6.830;2024-03-02T11:41:55;15.40;62.00
14733;DHT22;7457;50.960;6.830;2024-03-02T11:44:21;15.50;62.10
14733;DHT22;7457;50.960;6.830;2024-03-02T11:49:44;15.00;61.40
14733;DHT22;7457;50.960;6.830;2024-03-02T11:52:13;14.70;62.30
14733;DHT22;7457;50.960;6.830;2024-03-02T11:54:44;14.40;62.40
14733;DHT22;7457;50.960;6.830;2024-03-02T12:04:40;14.00;64.40
14733;DHT22;7457;50.960;6.830;2024-03-02T12:07:05;14.00;64.60
14733;DHT22;7457;50.960;6.830;2024-03-02T12:09:31;13.90;64.90
14733;DHT22;7457;50.960;6.830;2024-03-02T12:12:08;13.90;65.40
14733;DHT22;7457;50.960;6.830;2024-03-02T12:14:36;13.90;64.90
14733;DHT22;7457;50.960;6.830;2024-03-02T12:17:03;13.90;65.40
14733;DHT22;7457;50.960;6.830;2024-03-02T12:19:30;13.80;65.10
14733;DHT22;7457;50.960;6.830;2024-03-02T12:21:59;13.70;65.50
14733;DHT22;7457;50.960;6.830;2024-03-02T12:24:28;13.70;66.80
14733;DHT22;7457;50.960;6.830;2024-03-02T12:26:54;13.80;66.70
14733;DHT22;7457;50.960;6.830;2024-03-02T12:29:21;13.80;66.10
14733;DHT22;7457;50.960;6.830;2024-03-02T12:31:53;13.90;66.20
14733;DHT22;7457;50.960;6.830;2024-03-02T12:34:19;13.90;66.50
14733;DHT22;7457;50.960;6.830;2024-03-02T12:36:46;13.90;66.20
14733;DHT22;7457;50.960;6.830;2024-03-02T12:39:19;13.90;66.00
14733;DHT22;7457;50.960;6.830;2024-03-02T12:41:46;13.80;66.00
14733;DHT22;7457;50.960;6.830;2024-03-02T12:44:12;13.80;65.90
14733;DHT22;7457;50.960;6.830;2024-03-02T12:46:38;13.70;66.40
14733;DHT22;7457;50.960;6.830;2024-03-02T12:49:11;13.70;67.00
14733;DHT22;7457;50.960;6.830;2024-03-02T12:51:40;13.70;67.20
14733;DHT22;7457;50.960;6.830;2024-03-02T12:54:08;13.60;67.40
14733;DHT22;7457;50.960;6.830;2024-03-02T12:56:35;13.60;67.80
14733;DHT22;7457;50.960;6.830;2024-03-02T12:59:01;13.60;68.00
14733;DHT22;7457;50.960;6.830;2024-03-02T13:01:28;13.70;68.70
14733;DHT22;7457;50.960;6.830;2024-03-02T13:03:54;13.80;68.20
14733;DHT22;7457;50.960;6.830;2024-03-02T13:06:23;13.80;67.80
14733;DHT22;7457;50.960;6.830;2024-03-02T13:08:49;13.80;67.70
14733;DHT22;7457;50.960;6.830;2024-03-02T13:11:16;13.90;67.60
14733;DHT22;7457;50.960;6.830;2024-03-02T13:13:42;13.90;67.90
14733;DHT22;7457;50.960;6.830;2024-03-02T13:16:09;13.80;67.20
14733;DHT22;7457;50.960;6.830;2024-03-02T13:18:36;13.80;66.90
14733;DHT22;7457;50.960;6.830;2024-03-02T13:21:02;13.70;67.70
14733;DHT22;7457;50.960;6.830;2024-03-02T13:23:28;13.60;67.60
14733;DHT22;7457;50.960;6.830;2024-03-02T13:25:57;13.60;67.70
14733;DHT22;7457;50.960;6.830;2024-03-02T13:28:24;13.50;67.50
14733;DHT22;7457;50.960;6.830;2024-03-02T13:30:50;13.40;68.20
14733;DHT22;7457;50.960;6.830;2024-03-02T13:33:16;13.30;68.10
14733;DHT22;7457;50.960;6.830;2024-03-02T13:35:51;13.30;68.30
14733;DHT22;7457;50.960;6.830;2024-03-02T13:38:20;13.20;68.40
14733;DHT22;7457;50.960;6.830;2024-03-02T13:40:48;13.30;69.10
14733;DHT22;7457;50.960;6.830;2024-03-02T13:43:18;13.30;69.30
14733;DHT22;7457;50.960;6.830;2024-03-02T13:45:46;13.40;69.00
14733;DHT22;7457;50.960;6.830;2024-03-02T13:48:13;13.40;68.80
14733;DHT22;7457;50.960;6.830;2024-03-02T13:50:40;13.40;68.40
14733;DHT22;7457;50.960;6.830;2024-03-02T13:53:09;13.50;68.60
14733;DHT22;7457;50.960;6.830;2024-03-02T13:55:34;13.50;68.30
14733;DHT22;7457;50.960;6.830;2024-03-02T13:58:01;13.50;68.70
14733;DHT22;7457;50.960;6.830;2024-03-02T14:00:26;13.40;68.60
14733;DHT22;7457;50.960;6.830;2024-03-02T14:02:52;13.40;68.30
14733;DHT22;7457;50.960;6.830;2024-03-02T14:05:18;13.50;68.50
14733;DHT22;7457;50.960;6.830;2024-03-02T14:07:44;13.50;68.70
14733;DHT22;7457;50.960;6.830;2024-03-02T14:10:10;13.60;68.80
14733;DHT22;7457;50.960;6.830;2024-03-02T14:12:37;13.70;68.50
14733;DHT22;7457;50.960;6.830;2024-03-02T14:15:03;13.80;68.40
14733;DHT22;7457;50.960;6.830;2024-03-02T14:17:29;13.90;68.10
14733;DHT22;7457;50.960;6.830;2024-03-02T14:19:57;14.00;67.00
14733;DHT22;7457;50.960;6.830;2024-03-02T14:22:25;14.00;67.30
14733;DHT22;7457;50.960;6.830;2024-03-02T14:24:50;14.10;67.70
14733;DHT22;7457;50.960;6.830;2024-03-02T14:27:16;14.10;67.20
14733;DHT22;7457;50.960;6.830;2024-03-02T14:29:43;14.10;66.90
14733;DHT22;7457;50.960;6.830;2024-03-02T14:32:09;14.00;66.70
14733;DHT22;7457;50.960;6.830;2024-03-02T14:34:34;13.90;66.30
14733;DHT22;7457;50.960;6.830;2024-03-02T14:37:00;13.80;65.90
14733;DHT22;7457;50.960;6.830;2024-03-02T14:39:27;13.70;65.90
14733;DHT22;7457;50.960;6.830;2024-03-02T14:41:52;13.60;66.20
14733;DHT22;7457;50.960;6.830;2024-03-02T14:44:18;13.50;66.20
14733;DHT22;7457;50.960;6.830;2024-03-02T14:46:47;13.50;66.10
14733;DHT22;7457;50.960;6.830;2024-03-02T14:49:13;13.50;66.20
14733;DHT22;7457;50.960;6.830;2024-03-02T14:51:39;13.50;66.50
14733;DHT22;7457;50.960;6.830;2024-03-02T14:54:05;13.50;67.10
14733;DHT22;7457;50.960;6.830;2024-03-02T14:56:31;13.50;66.50
14733;DHT22;7457;50.960;6.830;2024-03-02T14:58:57;13.50;66.90
14733;DHT22;7457;50.960;6.830;2024-03-02T15:01:23;13.60;66.70
14733;DHT22;7457;50.960;6.830;2024-03-02T15:03:50;13.70;66.00
14733;DHT22;7457;50.960;6.830;2024-03-02T15:06:16;13.70;66.00
14733;DHT22;7457;50.960;6.830;2024-03-02T15:08:42;13.80;65.80
14733;DHT22;7457;50.960;6.830;2024-03-02T15:11:09;14.00;65.60
14733;DHT22;7457;50.960;6.830;2024-03-02T15:13:35;14.00;64.50
14733;DHT22;7457;50.960;6.830;2024-03-02T15:16:01;14.10;64.70
14733;DHT22;7457;50.960;6.830;2024-03-02T15:18:26;14.10;65.10
14733;DHT22;7457;50.960;6.830;2024-03-02T15:20:53;14.20;65.30
14733;DHT22;7457;50.960;6.830;2024-03-02T15:23:19;14.20;64.80
14733;DHT22;7457;50.960;6.830;2024-03-02T15:25:44;14.20;64.50
14733;DHT22;7457;50.960;6.830;2024-03-02T15:28:10;14.10;64.30
14733;DHT22;7457;50.960;6.830;2024-03-02T15:30:36;14.00;64.40
14733;DHT22;7457;50.960;6.830;2024-03-02T15:33:02;14.00;64.60
14733;DHT22;7457;50.960;6.830;2024-03-02T15:35:28;13.90;64.80
14733;DHT22;7457;50.960;6.830;2024-03-02T15:37:53;13.90;64.90
14733;DHT22;7457;50.960;6.830;2024-03-02T15:40:19;13.80;64.80
14733;DHT22;7457;50.960;6.830;2024-03-02T15:42:45;13.70;64.70
14733;DHT22;7457;50.960;6.830;2024-03-02T15:45:10;13.70;64.70
14733;DHT22;7457;50.960;6.830;2024-03-02T15:47:36;13.60;64.80
14733;DHT22;7457;50.960;6.830;2024-03-02T15:50:03;13.60;65.20
14733;DHT22;7457;50.960;6.830;2024-03-02T15:52:30;13.60;65.40
14733;DHT22;7457;50.960;6.830;2024-03-02T15:54:55;13.60;64.50
14733;DHT22;7457;50.960;6.830;2024-03-02T15:57:21;13.60;64.60
14733;DHT22;7457;50.960;6.830;2024-03-02T15:59:48;13.60;64.90
14733;DHT22;7457;50.960;6.830;2024-03-02T16:02:15;13.60;64.80
14733;DHT22;7457;50.960;6.830;2024-03-02T16:04:41;13.60;64.80
14733;DHT22;7457;50.960;6.830;2024-03-02T16:07:07;13.60;64.80
14733;DHT22;7457;50.960;6.830;2024-03-02T16:09:33;13.60;65.00
14733;DHT22;7457;50.960;6.830;2024-03-02T16:11:58;13.60;64.80
14733;DHT22;7457;50.960;6.830;2024-03-02T16:14:24;13.60;64.60
14733;DHT22;7457;50.960;6.830;2024-03-02T16:16:50;13.60;64.50
14733;DHT22;7457;50.960;6.830;2024-03-02T16:19:16;13.70;64.30